Terminal Aerodrome Forecast
Issued by NWS

Home | Current Version | Previous Version | Text Only | Print | Product List | Glossary On
Versions: 1 2 3 4 5 6 7 8 9 10 11 12 13 14 15 16 17 18 19
785
FTUS43 KOAX 221300 AAA
TAFBFF
TAF AMD
KBFF 221300Z 2213/2312 11012KT P6SM SCT025 OVC035
     FM221400 12014KT 4SM -RA BR OVC025
     FM221900 11013KT 4SM -RA BR OVC015
     FM230100 10012KT 2SM -RA BR OVC008=

USA.gov is the U.S. government's official web portal to all federal, state and local government web resources and services.